Time;durP1;ratioP1;P1;durP2;ratioP2;P2;SDS_P1;SDS_P2;PMS_P1;PMS_P2;Temp;Humidity;BMP_temperature;BMP_pressure;BME280_temperature;BME280_humidity;BME280_pressure;Samples;Min_cycle;Max_cycle;Signal;HPM_P1;HPM_P2
2021/02/28 00:00:36;;;;;;;;;15.00;13.75;;;;;3.92;76.83;102163.91;3724913;38;21553;-60
2021/02/28 00:03:02;;;;;;;;;13.75;11.50;;;;;3.93;76.59;102154.91;3725043;37;21574;-60
2021/02/28 00:05:31;;;;;;;;;17.75;14.75;;;;;3.95;76.90;102150.31;3724868;37;21564;-59
2021/02/28 00:07:57;;;;;;;;;12.00;10.25;;;;;3.82;77.06;102128.84;3725148;38;21569;-58
2021/02/28 00:10:26;;;;;;;;;14.25;13.50;;;;;3.93;76.28;102147.75;3724823;37;21525;-58
2021/02/28 00:12:52;;;;;;;;;17.00;14.25;;;;;3.96;76.50;102146.69;3725454;37;21529;-59
2021/02/28 00:15:20;;;;;;;;;15.50;12.25;;;;;3.91;76.88;102135.41;3725354;38;21488;-59
2021/02/28 00:17:47;;;;;;;;;14.25;14.00;;;;;3.90;76.60;102139.91;3725136;38;21504;-59
2021/02/28 00:20:19;;;;;;;;;15.00;12.00;;;;;3.86;76.91;102148.25;3724936;37;21527;-59
2021/02/28 00:22:46;;;;;;;;;14.25;13.25;;;;;3.84;77.21;102143.00;3725010;38;21488;-58
2021/02/28 00:25:15;;;;;;;;;12.00;11.25;;;;;3.84;77.26;102144.81;3724966;38;21542;-58
2021/02/28 00:27:42;;;;;;;;;13.25;12.25;;;;;3.75;76.83;102137.38;3724892;37;21478;-59
2021/02/28 00:30:10;;;;;;;;;14.50;11.25;;;;;3.76;77.18;102141.78;3724968;37;21576;-58
2021/02/28 00:32:38;;;;;;;;;12.75;11.50;;;;;3.65;77.30;102135.31;3724910;37;21466;-58
2021/02/28 00:35:07;;;;;;;;;14.25;13.50;;;;;3.72;76.94;102134.91;3724989;37;21489;-59
2021/02/28 00:37:34;;;;;;;;;14.50;11.75;;;;;3.73;77.39;102142.84;3725109;38;21474;-59
2021/02/28 00:40:01;;;;;;;;;12.25;8.75;;;;;3.74;76.99;102149.06;3724772;37;21481;-57
2021/02/28 00:42:27;;;;;;;;;17.25;12.50;;;;;3.69;77.31;102140.44;3725037;37;21440;-58
2021/02/28 00:44:53;;;;;;;;;12.25;11.75;;;;;3.65;77.62;102140.66;3724923;37;21455;-58
2021/02/28 00:47:20;;;;;;;;;11.00;9.50;;;;;3.68;77.30;102134.25;3725066;38;21478;-59
2021/02/28 00:49:46;;;;;;;;;14.75;12.50;;;;;3.72;77.30;102134.91;3724959;37;21467;-59
2021/02/28 00:52:12;;;;;;;;;11.75;11.25;;;;;3.67;77.48;102121.81;3724900;38;21560;-59
2021/02/28 00:54:39;;;;;;;;;11.50;11.50;;;;;3.66;77.19;102129.00;3724870;37;21399;-58
2021/02/28 00:57:06;;;;;;;;;10.25;8.75;;;;;3.73;77.00;102137.47;3724951;37;21399;-58
2021/02/28 00:59:33;;;;;;;;;10.25;10.25;;;;;3.79;77.06;102138.91;3724843;38;21403;-58
2021/02/28 01:02:00;;;;;;;;;13.75;12.00;;;;;3.76;76.96;102141.78;3724789;38;21341;-59
2021/02/28 01:04:26;;;;;;;;;8.75;7.75;;;;;3.73;76.81;102139.28;3724968;37;21470;-57
2021/02/28 01:06:52;;;;;;;;;9.50;9.00;;;;;3.67;76.53;102127.16;3724665;37;21383;-60
2021/02/28 01:09:19;;;;;;;;;10.00;8.25;;;;;3.80;76.48;102145.97;3724989;38;21315;-59
2021/02/28 01:11:45;;;;;;;;;12.25;7.00;;;;;3.83;75.47;102149.31;3724758;37;21441;-58
2021/02/28 01:14:13;;;;;;;;;8.50;7.75;;;;;3.91;75.06;102143.44;3724912;38;21405;-58
2021/02/28 01:16:39;;;;;;;;;7.75;7.50;;;;;3.98;74.69;102142.94;3724850;37;21318;-58
2021/02/28 01:19:06;;;;;;;;;9.75;7.00;;;;;3.98;74.24;102161.69;3725050;37;21320;-57
2021/02/28 01:21:32;;;;;;;;;9.25;7.50;;;;;4.01;74.27;102149.91;3724956;38;21301;-59
2021/02/28 01:23:58;;;;;;;;;9.00;8.50;;;;;3.99;73.86;102146.47;3724921;38;21181;-58
2021/02/28 01:26:25;;;;;;;;;8.00;7.00;;;;;3.98;74.12;102139.41;3724965;38;21400;-58
2021/02/28 01:28:51;;;;;;;;;7.50;5.50;;;;;3.99;74.20;102149.16;3724831;37;21321;-60
2021/02/28 01:31:17;;;;;;;;;7.25;4.50;;;;;4.02;74.03;102153.44;3724955;37;21321;-59
2021/02/28 01:33:43;;;;;;;;;6.25;6.25;;;;;4.02;74.13;102154.31;3725039;38;21367;-58
2021/02/28 01:36:10;;;;;;;;;9.50;6.50;;;;;4.00;74.02;102145.50;3724956;38;21317;-58
2021/02/28 01:38:36;;;;;;;;;7.00;5.00;;;;;3.96;73.71;102147.53;3725155;38;21384;-58
2021/02/28 01:41:02;;;;;;;;;11.25;9.00;;;;;3.93;74.02;102137.03;3724982;38;21342;-58
2021/02/28 01:43:30;;;;;;;;;6.00;6.00;;;;;3.96;73.95;102144.00;3724926;37;21431;-59
2021/02/28 01:45:56;;;;;;;;;10.25;10.00;;;;;3.95;74.28;102145.81;3725016;37;21310;-58
2021/02/28 01:48:22;;;;;;;;;7.25;6.25;;;;;3.90;74.33;102153.28;3724999;38;21432;-58
2021/02/28 01:50:48;;;;;;;;;9.25;8.25;;;;;3.92;74.19;102154.06;3724942;37;21325;-57
2021/02/28 01:53:16;;;;;;;;;11.00;10.00;;;;;3.85;74.41;102144.72;3724981;38;21309;-58
2021/02/28 01:55:44;;;;;;;;;7.00;6.25;;;;;3.83;74.96;102149.31;3725074;38;21349;-58
2021/02/28 01:58:11;;;;;;;;;9.25;7.50;;;;;3.78;75.04;102139.84;3725024;38;21228;-59
2021/02/28 02:00:37;;;;;;;;;9.75;8.75;;;;;3.80;75.27;102151.31;3725296;37;21299;-58
2021/02/28 02:03:04;;;;;;;;;8.75;7.75;;;;;3.67;75.12;102124.50;3724996;37;21285;-59
2021/02/28 02:05:30;;;;;;;;;7.25;6.75;;;;;3.69;74.98;102138.63;3725279;38;21311;-59
2021/02/28 02:07:57;;;;;;;;;8.00;6.00;;;;;3.78;75.27;102147.88;3725151;38;21300;-58
2021/02/28 02:10:23;;;;;;;;;8.25;8.00;;;;;3.80;74.99;102156.69;3724854;37;21239;-59
2021/02/28 02:12:50;;;;;;;;;4.00;3.25;;;;;3.82;74.61;102160.13;3724700;37;21284;-58
2021/02/28 02:15:18;;;;;;;;;11.75;8.50;;;;;3.78;74.39;102145.22;3724967;38;21286;-58
2021/02/28 02:17:45;;;;;;;;;7.00;7.00;;;;;3.86;74.96;102157.12;3724669;38;21244;-58
2021/02/28 02:20:15;;;;;;;;;11.25;8.00;;;;;3.78;74.75;102147.88;3724864;37;21296;-58
2021/02/28 02:22:43;;;;;;;;;6.50;6.50;;;;;3.81;74.79;102155.72;3724970;37;21287;-59
2021/02/28 02:25:12;;;;;;;;;8.75;8.00;;;;;3.80;74.85;102159.34;3724885;38;21180;-59
2021/02/28 02:27:39;;;;;;;;;7.50;7.25;;;;;3.77;74.98;102156.88;3725142;38;21279;-58
2021/02/28 02:30:25;;;;;;;;;6.75;6.00;;;;;3.81;75.05;102161.06;3724710;38;21258;-57
2021/02/28 02:32:53;;;;;;;;;6.50;3.00;;;;;3.79;74.76;102166.53;3724955;37;21216;-58
2021/02/28 02:35:21;;;;;;;;;8.00;7.00;;;;;3.80;75.01;102164.72;3724955;37;21279;-58
2021/02/28 02:37:50;;;;;;;;;7.50;7.50;;;;;3.74;75.29;102165.13;3725210;38;21233;-59
2021/02/28 02:40:20;;;;;;;;;7.00;4.50;;;;;3.75;75.39;102173.03;3725011;38;21277;-57
2021/02/28 02:42:47;;;;;;;;;8.75;7.25;;;;;3.76;75.22;102176.59;3725046;38;21264;-59
2021/02/28 02:45:19;;;;;;;;;8.50;7.75;;;;;3.80;75.13;102178.09;3724979;38;21245;-59
2021/02/28 02:47:47;;;;;;;;;7.00;7.00;;;;;3.79;75.13;102176.37;3725062;38;21267;-59
2021/02/28 02:50:16;;;;;;;;;7.00;6.75;;;;;3.72;75.29;102188.44;3724996;37;21244;-57
2021/02/28 02:52:43;;;;;;;;;8.00;8.00;;;;;3.69;75.31;102181.47;3724989;38;21238;-59
2021/02/28 02:55:12;;;;;;;;;8.00;7.00;;;;;3.69;75.50;102177.94;3724891;37;21223;-58
2021/02/28 02:57:38;;;;;;;;;8.00;7.00;;;;;3.73;75.66;102195.53;3725123;37;21229;-59
2021/02/28 03:00:06;;;;;;;;;9.00;8.00;;;;;3.69;75.62;102194.88;3724910;38;21202;-59
2021/02/28 03:02:33;;;;;;;;;11.00;6.75;;;;;3.65;75.84;102196.03;3724920;38;21335;-59
2021/02/28 03:04:59;;;;;;;;;7.00;7.00;;;;;3.68;75.55;102201.19;3724861;37;21282;-59
2021/02/28 03:07:25;;;;;;;;;7.00;6.75;;;;;3.70;75.54;102199.25;3724808;37;21232;-59
2021/02/28 03:10:06;;;;;;;;;7.00;5.00;;;;;3.70;75.61;102201.06;3724816;37;21211;-58
2021/02/28 03:12:33;;;;;;;;;7.50;7.00;;;;;3.69;75.99;102207.38;3724991;37;21230;-59
2021/02/28 03:14:59;;;;;;;;;10.50;9.75;;;;;3.63;75.84;102212.22;3725497;37;21212;-58
2021/02/28 03:17:26;;;;;;;;;10.50;9.75;;;;;3.63;76.22;102209.53;3725149;38;21161;-58
2021/02/28 03:19:55;;;;;;;;;7.50;6.50;;;;;3.68;76.33;102209.22;3725060;38;21165;-57
2021/02/28 03:22:23;;;;;;;;;8.50;8.50;;;;;3.64;76.07;102205.00;3724985;37;21200;-59
2021/02/28 03:24:49;;;;;;;;;11.00;9.00;;;;;3.65;76.37;102214.75;3725079;38;21249;-58
2021/02/28 03:27:16;;;;;;;;;10.50;7.25;;;;;3.59;76.57;102204.47;3725160;38;21247;-58
2021/02/28 03:29:46;;;;;;;;;11.00;10.75;;;;;3.58;76.90;102214.31;3725401;37;21258;-58
2021/02/28 03:32:13;;;;;;;;;12.00;10.75;;;;;3.54;77.23;102215.47;3725504;37;21182;-58
2021/02/28 03:34:40;;;;;;;;;8.00;7.25;;;;;3.56;77.17;102218.91;3725005;37;21227;-57
2021/02/28 03:37:08;;;;;;;;;13.50;9.00;;;;;3.60;76.77;102222.25;3725020;38;21146;-58
2021/02/28 03:39:34;;;;;;;;;9.50;8.25;;;;;3.61;76.99;102224.84;3725296;37;21216;-59
2021/02/28 03:42:01;;;;;;;;;12.50;12.25;;;;;3.59;76.95;102224.06;3724977;37;21217;-59
2021/02/28 03:44:27;;;;;;;;;13.50;9.25;;;;;3.62;77.10;102229.22;3724830;38;21241;-58
2021/02/28 03:46:53;;;;;;;;;9.50;9.50;;;;;3.64;77.06;102227.28;3724921;38;21206;-58
2021/02/28 03:49:20;;;;;;;;;4.00;4.00;;;;;3.64;77.02;102229.09;3724983;37;21138;-58
2021/02/28 03:51:46;;;;;;;;;11.00;9.25;;;;;3.64;77.17;102237.13;3725047;37;21117;-58
2021/02/28 03:54:12;;;;;;;;;6.25;6.25;;;;;3.65;77.28;102229.00;3724985;38;21193;-58
2021/02/28 03:56:38;;;;;;;;;11.75;9.00;;;;;3.64;76.79;102235.31;3724934;37;21113;-58
2021/02/28 03:59:04;;;;;;;;;12.75;10.50;;;;;3.75;76.72;102237.31;3724943;38;21177;-58
2021/02/28 04:01:31;;;;;;;;;13.00;11.75;;;;;3.73;76.48;102239.22;3724985;38;21189;-57
2021/02/28 04:03:57;;;;;;;;;12.00;9.50;;;;;3.75;76.41;102249.84;3724973;38;21230;-57
2021/02/28 04:06:23;;;;;;;;;13.00;10.50;;;;;3.74;76.56;102229.38;3724977;37;21161;-58
2021/02/28 04:08:49;;;;;;;;;8.00;6.75;;;;;3.74;76.97;102240.09;3724878;37;21204;-57
2021/02/28 04:11:15;;;;;;;;;11.25;8.00;;;;;3.72;76.67;102242.00;3724553;38;21098;-57
2021/02/28 04:13:41;;;;;;;;;14.50;12.50;;;;;3.75;76.72;102241.81;3724933;37;21094;-57
2021/02/28 04:16:08;;;;;;;;;12.25;11.00;;;;;3.75;76.33;102256.06;3724978;37;21208;-57
2021/02/28 04:18:34;;;;;;;;;12.25;8.50;;;;;3.74;76.59;102234.72;3724951;38;21170;-57
2021/02/28 04:21:00;;;;;;;;;14.00;11.75;;;;;3.69;76.33;102232.34;3725014;37;21143;-57
2021/02/28 04:23:26;;;;;;;;;12.25;11.75;;;;;3.72;76.61;102240.19;3725119;38;21209;-58
2021/02/28 04:25:52;;;;;;;;;12.50;11.25;;;;;3.72;76.70;102252.72;3725028;37;21180;-57
2021/02/28 04:28:19;;;;;;;;;12.50;11.25;;;;;3.70;76.83;102243.91;3724887;37;21153;-58
2021/02/28 04:30:45;;;;;;;;;15.00;12.75;;;;;3.65;77.07;102242.41;3725035;37;21188;-59
2021/02/28 04:33:11;;;;;;;;;14.50;12.75;;;;;3.62;76.83;102247.97;3725045;38;21251;-59
2021/02/28 04:35:37;;;;;;;;;15.50;12.75;;;;;3.63;77.05;102244.34;3725050;37;21200;-57
2021/02/28 04:38:03;;;;;;;;;13.00;9.75;;;;;3.61;76.86;102240.03;3725072;37;21128;-57
2021/02/28 04:40:30;;;;;;;;;11.00;10.25;;;;;3.63;76.98;102247.03;3725015;38;21123;-60
2021/02/28 04:42:56;;;;;;;;;13.50;11.00;;;;;3.60;77.49;102244.53;3724757;37;21071;-58
2021/02/28 04:45:22;;;;;;;;;14.25;11.50;;;;;3.60;77.06;102243.69;3724873;37;21110;-57
2021/02/28 04:47:49;;;;;;;;;10.75;7.00;;;;;3.53;77.07;102245.88;3724903;38;21185;-58
2021/02/28 04:50:16;;;;;;;;;14.75;10.50;;;;;3.56;77.29;102251.03;3724874;38;21081;-58
2021/02/28 04:52:42;;;;;;;;;19.50;16.50;;;;;3.49;77.41;102244.34;3724863;38;21153;-59
2021/02/28 04:55:09;;;;;;;;;7.75;7.00;;;;;3.47;77.77;102248.94;3725003;38;21152;-58
2021/02/28 04:57:36;;;;;;;;;14.00;12.00;;;;;3.44;77.77;102254.47;3724909;37;21045;-58
2021/02/28 05:00:05;;;;;;;;;12.00;11.50;;;;;3.49;77.37;102247.03;3724842;37;21154;-60
2021/02/28 05:02:31;;;;;;;;;15.00;12.75;;;;;3.42;77.79;102247.50;3724875;37;21122;-59
2021/02/28 05:04:58;;;;;;;;;12.50;10.50;;;;;3.48;77.45;102247.13;3724938;38;21206;-58
2021/02/28 05:07:24;;;;;;;;;12.00;10.75;;;;;3.48;77.71;102263.19;3724901;37;21161;-58
2021/02/28 05:09:50;;;;;;;;;12.50;12.25;;;;;3.43;77.58;102258.13;3724913;37;21112;-59
2021/02/28 05:12:16;;;;;;;;;12.00;12.00;;;;;3.36;77.99;102262.12;3724921;38;21175;-58
2021/02/28 05:14:43;;;;;;;;;16.75;11.75;;;;;3.27;78.15;102242.16;3724959;37;21382;-59
2021/02/28 05:17:09;;;;;;;;;17.50;11.50;;;;;3.28;77.95;102251.03;3725181;38;21103;-59
2021/02/28 05:19:35;;;;;;;;;14.00;13.00;;;;;3.34;77.95;102264.03;3725182;38;21080;-59
2021/02/28 05:22:02;;;;;;;;;13.00;11.00;;;;;3.31;78.05;102256.19;3725062;38;21087;-59
2021/02/28 05:24:28;;;;;;;;;17.25;16.75;;;;;3.37;77.80;102284.41;3725103;38;21044;-58
2021/02/28 05:26:54;;;;;;;;;12.25;11.00;;;;;3.37;77.90;102279.91;3725076;38;21116;-58
2021/02/28 05:29:21;;;;;;;;;8.00;7.00;;;;;3.40;77.59;102273.50;3724843;37;21087;-59
2021/02/28 05:31:47;;;;;;;;;5.50;5.50;;;;;3.39;77.70;102286.03;3725028;37;21005;-58
2021/02/28 05:34:13;;;;;;;;;12.00;12.00;;;;;3.42;77.55;102298.34;3724963;37;20810;-58
2021/02/28 05:36:39;;;;;;;;;7.75;7.00;;;;;3.41;77.60;102277.91;3724913;37;21057;-59
2021/02/28 05:39:06;;;;;;;;;15.00;13.00;;;;;3.36;77.28;102282.69;3724903;37;20979;-58
2021/02/28 05:41:33;;;;;;;;;15.75;12.00;;;;;3.41;77.48;102288.59;3724896;38;20965;-58
2021/02/28 05:43:59;;;;;;;;;12.00;9.25;;;;;3.40;76.94;102294.91;3724865;38;21101;-59
2021/02/28 05:46:25;;;;;;;;;12.25;11.25;;;;;3.44;77.15;102291.09;3725028;38;21040;-59
2021/02/28 05:48:53;;;;;;;;;12.50;11.00;;;;;3.48;76.97;102295.31;3724823;38;21072;-59
2021/02/28 05:51:20;;;;;;;;;13.00;10.75;;;;;3.40;76.98;102279.72;3725012;38;21055;-59
2021/02/28 05:53:48;;;;;;;;;16.00;14.25;;;;;3.50;77.07;102291.56;3724705;38;21086;-59
2021/02/28 05:56:14;;;;;;;;;12.25;11.00;;;;;3.47;76.97;102299.78;3725100;38;21104;-59
2021/02/28 05:58:40;;;;;;;;;9.00;8.75;;;;;3.40;76.77;102285.06;3724981;37;21054;-58
2021/02/28 06:01:23;;;;;;;;;12.00;12.00;;;;;3.55;76.30;102302.84;3724907;38;20975;-58
2021/02/28 06:04:12;;;;;;;;;12.00;10.00;;;;;3.58;75.80;102302.66;3725170;37;21047;-59
2021/02/28 06:06:39;;;;;;;;;13.75;11.75;;;;;3.60;75.59;102308.78;3725058;37;21086;-58
2021/02/28 06:09:38;;;;;;;;;14.25;12.00;;;;;3.57;75.46;102302.75;3725034;38;21009;-59
2021/02/28 06:12:12;;;;;;;;;11.75;11.00;;;;;3.47;75.21;102312.31;3725156;37;21017;-59
2021/02/28 06:14:41;;;;;;;;;14.00;11.50;;;;;3.55;75.23;102308.22;3725140;38;21003;-58
2021/02/28 06:17:45;;;;;;;;;8.50;8.50;;;;;3.59;74.79;102309.75;3725307;38;21006;-59
2021/02/28 06:20:23;;;;;;;;;12.75;11.50;;;;;3.57;74.44;102318.81;3725118;37;20910;-58
2021/02/28 06:22:56;;;;;;;;;13.75;12.75;;;;;3.57;74.96;102313.47;3725201;37;21005;-58
2021/02/28 06:25:31;;;;;;;;;12.25;12.00;;;;;3.54;74.13;102330.59;3725379;37;21008;-58
2021/02/28 06:27:59;;;;;;;;;15.50;11.75;;;;;3.54;74.39;102317.19;3725354;37;21020;-58
2021/02/28 06:30:29;;;;;;;;;11.75;10.00;;;;;3.53;74.57;102323.50;3725121;38;20994;-59
2021/02/28 06:33:16;;;;;;;;;13.25;12.50;;;;;3.58;74.13;102325.91;3725030;37;20936;-59
2021/02/28 06:35:47;;;;;;;;;10.75;9.25;;;;;3.60;74.28;102322.16;3725203;37;21030;-58
2021/02/28 06:38:14;;;;;;;;;17.25;11.50;;;;;3.65;73.66;102332.56;3725095;37;20924;-58
2021/02/28 06:40:41;;;;;;;;;10.75;9.25;;;;;3.65;73.08;102314.69;3724979;38;20976;-59
2021/02/28 06:43:13;;;;;;;;;13.50;10.50;;;;;3.63;73.48;102323.81;3724903;38;20990;-59
2021/02/28 06:45:41;;;;;;;;;12.75;12.50;;;;;3.69;73.03;102343.94;3724897;38;20955;-58
2021/02/28 06:48:21;;;;;;;;;16.75;11.75;;;;;3.74;72.93;102341.84;3724713;37;21033;-58
2021/02/28 06:50:57;;;;;;;;;15.25;10.75;;;;;3.74;72.40;102352.56;3724931;37;20919;-56
2021/02/28 06:53:25;;;;;;;;;14.50;13.75;;;;;3.70;72.18;102340.31;3724793;38;20930;-57
2021/02/28 06:56:10;;;;;;;;;11.50;10.00;;;;;3.74;72.29;102365.94;3724887;37;20994;-58
2021/02/28 06:58:38;;;;;;;;;14.25;12.75;;;;;3.66;72.15;102332.47;3724897;37;20870;-58
2021/02/28 07:01:08;;;;;;;;;13.75;12.00;;;;;3.61;72.06;102334.59;3724994;37;21003;-59
2021/02/28 07:03:34;;;;;;;;;14.00;13.00;;;;;3.64;71.88;102357.62;3724828;38;20940;-62
2021/02/28 07:06:01;;;;;;;;;12.00;12.00;;;;;3.70;71.61;102351.03;3724893;37;20963;-57
2021/02/28 07:08:27;;;;;;;;;16.75;14.50;;;;;3.70;71.44;102353.69;3724967;38;20950;-60
2021/02/28 07:10:54;;;;;;;;;14.25;11.50;;;;;3.71;71.33;102350.06;3725077;38;21041;-60
2021/02/28 07:13:21;;;;;;;;;13.75;12.25;;;;;3.73;71.23;102356.19;3724863;37;21011;-58
2021/02/28 07:15:47;;;;;;;;;14.00;12.00;;;;;3.70;71.61;102359.91;3725343;37;20950;-58
2021/02/28 07:18:23;;;;;;;;;12.25;11.00;;;;;3.77;71.22;102374.66;3724782;37;21008;-57
2021/02/28 07:20:50;;;;;;;;;18.00;15.50;;;;;3.76;71.44;102359.53;3724967;37;20913;-57
2021/02/28 07:23:35;;;;;;;;;17.50;12.00;;;;;3.81;71.41;102348.53;3724721;37;20961;-58
2021/02/28 07:26:14;;;;;;;;;17.25;14.75;;;;;3.70;71.29;102365.28;3724902;38;20983;-57
2021/02/28 07:28:47;;;;;;;;;12.00;12.00;;;;;3.65;71.30;102375.41;3724867;37;20959;-56
2021/02/28 07:31:24;;;;;;;;;11.50;9.25;;;;;3.73;71.50;102367.75;3724939;37;20917;-57
2021/02/28 07:34:06;;;;;;;;;18.75;16.25;;;;;3.77;71.10;102380.00;3724863;38;20834;-58
2021/02/28 07:37:03;;;;;;;;;7.00;6.25;;;;;3.65;71.57;102373.59;3724995;37;20962;-57
2021/02/28 07:39:31;;;;;;;;;11.50;9.00;;;;;3.61;71.08;102382.78;3724857;37;20847;-57
2021/02/28 07:42:41;;;;;;;;;12.25;11.25;;;;;3.63;71.03;102385.38;3725019;38;20795;-57
2021/02/28 07:45:09;;;;;;;;;12.50;12.50;;;;;3.56;70.68;102360.78;3724982;37;20920;-58
2021/02/28 07:47:53;;;;;;;;;13.75;12.00;;;;;3.67;70.33;102371.69;3724995;37;20952;-56
2021/02/28 07:50:21;;;;;;;;;13.75;11.00;;;;;3.65;70.64;102360.19;3724950;37;20887;-57
2021/02/28 07:52:52;;;;;;;;;18.25;15.75;;;;;3.58;70.45;102399.03;3724891;37;20891;-58
2021/02/28 07:55:25;;;;;;;;;16.75;15.50;;;;;3.62;70.90;102375.63;3725021;38;20913;-58
2021/02/28 07:57:53;;;;;;;;;22.75;15.50;;;;;3.58;70.62;102391.00;3725145;38;20945;-57
2021/02/28 08:00:38;;;;;;;;;12.50;12.00;;;;;3.59;70.24;102371.31;3725009;38;20943;-58
2021/02/28 08:03:39;;;;;;;;;11.00;11.00;;;;;3.70;70.40;102383.16;3725009;37;20919;-58
2021/02/28 08:06:13;;;;;;;;;14.75;12.75;;;;;3.57;70.50;102357.16;3724869;38;20708;-56
2021/02/28 08:08:40;;;;;;;;;12.75;12.00;;;;;3.58;70.68;102377.62;3725105;37;20902;-58
2021/02/28 08:11:17;;;;;;;;;17.50;13.50;;;;;3.58;70.65;102398.19;3725244;37;20856;-58
2021/02/28 08:13:47;;;;;;;;;13.00;12.25;;;;;3.52;70.63;102383.34;3725740;37;20887;-59
2021/02/28 08:16:36;;;;;;;;;18.25;17.00;;;;;3.29;70.31;102357.12;3724844;37;20873;-57
2021/02/28 08:19:09;;;;;;;;;16.00;15.75;;;;;3.43;70.45;102399.97;3725043;37;20877;-57
2021/02/28 08:21:42;;;;;;;;;15.25;13.00;;;;;3.41;70.28;102388.50;3725197;37;20892;-58
2021/02/28 08:24:27;;;;;;;;;11.50;6.75;;;;;3.50;69.88;102387.06;3725285;37;20881;-59
2021/02/28 08:26:56;;;;;;;;;17.75;17.25;;;;;3.46;69.78;102385.53;3725260;38;20871;-60
2021/02/28 08:29:31;;;;;;;;;19.25;16.75;;;;;3.59;69.54;102378.50;3725195;37;20910;-61
2021/02/28 08:31:59;;;;;;;;;18.25;17.50;;;;;3.55;69.45;102401.91;3725091;37;20897;-60
2021/02/28 08:34:28;;;;;;;;;21.75;20.75;;;;;3.52;69.04;102369.97;3725109;37;20874;-59
2021/02/28 08:37:03;;;;;;;;;18.75;15.50;;;;;3.59;69.32;102379.34;3724807;38;20880;-60
2021/02/28 08:39:36;;;;;;;;;19.50;17.75;;;;;3.75;69.12;102379.25;3724935;37;20896;-60
2021/02/28 08:47:12;;;;;;;;;21.75;20.50;;;;;3.82;68.53;102367.19;3725299;37;20030;-60
2021/02/28 08:49:44;;;;;;;;;21.25;17.50;;;;;3.93;68.11;102431.69;3725421;37;20154;-59
2021/02/28 08:52:27;;;;;;;;;18.75;15.50;;;;;3.88;67.68;102403.44;3725267;38;20096;-61
2021/02/28 08:54:56;;;;;;;;;23.00;19.00;;;;;3.95;68.14;102364.63;3725398;38;20074;-61
2021/02/28 08:57:28;;;;;;;;;14.25;12.75;;;;;3.96;67.88;102379.72;3725196;37;20030;-59
2021/02/28 09:00:27;;;;;;;;;16.75;15.00;;;;;3.98;67.37;102383.16;3725513;38;20047;-60
2021/02/28 09:02:54;;;;;;;;;15.25;13.50;;;;;3.91;67.02;102382.69;3725289;38;20064;-60
2021/02/28 09:05:28;;;;;;;;;16.75;14.00;;;;;4.07;67.24;102393.31;3725433;37;20056;-61
2021/02/28 09:07:59;;;;;;;;;11.25;9.50;;;;;4.23;67.27;102383.31;3725304;37;20036;-60
2021/02/28 09:10:38;;;;;;;;;17.25;16.00;;;;;4.30;66.91;102371.25;3725217;38;20020;-59
2021/02/28 09:13:06;;;;;;;;;16.25;15.00;;;;;4.45;67.00;102364.03;3725450;38;20057;-59
2021/02/28 09:15:38;;;;;;;;;18.75;17.00;;;;;4.50;65.65;102386.03;3725453;38;20049;-60
2021/02/28 09:18:30;;;;;;;;;17.75;16.25;;;;;4.44;66.17;102390.94;3725352;38;20033;-61
2021/02/28 09:20:57;;;;;;;;;14.75;13.00;;;;;4.39;65.94;102388.56;3725379;38;20041;-62
2021/02/28 09:23:25;;;;;;;;;18.00;15.25;;;;;4.46;65.96;102352.34;3725415;37;20035;-60
2021/02/28 09:26:07;;;;;;;;;21.50;17.00;;;;;4.79;66.08;102362.66;3725873;38;20033;-60
2021/02/28 09:28:34;;;;;;;;;20.50;18.25;;;;;4.54;64.25;102382.22;3725385;37;20024;-63
2021/02/28 09:31:00;;;;;;;;;13.25;12.25;;;;;4.73;64.14;102389.03;3725995;37;20033;-63
2021/02/28 09:33:53;;;;;;;;;15.00;13.25;;;;;4.91;64.14;102361.84;3725544;38;20000;-60
2021/02/28 09:36:21;;;;;;;;;19.25;16.75;;;;;4.83;63.22;102348.06;3725572;37;19978;-61
2021/02/28 09:39:07;;;;;;;;;13.75;12.75;;;;;4.77;64.27;102347.63;3724775;37;20040;-62
2021/02/28 09:41:34;;;;;;;;;13.25;12.75;;;;;4.85;63.89;102361.38;3725440;37;20000;-63
2021/02/28 09:44:17;;;;;;;;;19.00;15.75;;;;;4.67;63.96;102354.59;3725872;37;19982;-62
2021/02/28 09:46:44;;;;;;;;;19.25;18.00;;;;;4.72;64.12;102347.06;3725509;37;20000;-62
2021/02/28 09:49:10;;;;;;;;;16.75;15.00;;;;;4.81;63.97;102346.47;3725949;38;20021;-60
2021/02/28 09:51:39;;;;;;;;;14.00;12.25;;;;;4.83;63.50;102358.81;3725583;37;19986;-61
2021/02/28 09:54:16;;;;;;;;;14.25;13.00;;;;;5.04;63.32;102358.34;3725719;38;19992;-62
2021/02/28 09:56:43;;;;;;;;;15.00;14.00;;;;;5.20;63.45;102350.97;3725577;38;19969;-60
2021/02/28 09:59:09;;;;;;;;;12.50;12.50;;;;;5.33;62.97;102371.47;3725389;38;19991;-61
2021/02/28 10:01:38;;;;;;;;;12.00;10.50;;;;;5.52;62.79;102346.91;3725523;37;19982;-61
2021/02/28 10:04:05;;;;;;;;;10.50;8.50;;;;;5.24;60.50;102372.09;3725564;37;19981;-60
2021/02/28 10:06:37;;;;;;;;;12.75;11.50;;;;;5.23;61.07;102381.09;3725496;38;20936;-60
2021/02/28 10:09:31;;;;;;;;;9.00;9.00;;;;;5.02;60.86;102387.94;3725392;38;19976;-62
2021/02/28 10:12:11;;;;;;;;;11.00;10.25;;;;;5.11;62.17;102343.53;3725562;37;20919;-61
2021/02/28 10:14:39;;;;;;;;;8.50;8.00;;;;;5.23;62.49;102353.41;3725607;38;19963;-61
2021/02/28 10:17:09;;;;;;;;;12.50;10.25;;;;;5.25;60.85;102384.56;3725643;38;19926;-60
2021/02/28 10:19:35;;;;;;;;;10.00;9.00;;;;;5.10;59.87;102360.59;3725473;37;20965;-62
2021/02/28 10:22:05;;;;;;;;;11.00;9.75;;;;;5.26;59.87;102340.62;3725429;37;20931;-62
2021/02/28 10:24:42;;;;;;;;;9.50;7.00;;;;;5.22;58.37;102346.31;3725707;37;20943;-62
2021/02/28 10:27:08;;;;;;;;;7.75;7.25;;;;;5.19;58.85;102354.63;3725594;38;20921;-61
2021/02/28 10:29:35;;;;;;;;;12.50;10.00;;;;;5.39;59.32;102342.47;3725370;37;20915;-62
2021/02/28 10:32:01;;;;;;;;;11.25;10.75;;;;;5.39;58.97;102356.75;3725619;37;20951;-61
2021/02/28 10:34:27;;;;;;;;;13.00;11.50;;;;;5.25;58.50;102362.22;3725353;38;20945;-60
2021/02/28 10:36:53;;;;;;;;;9.25;8.75;;;;;5.18;59.00;102375.22;3725431;37;20929;-62
2021/02/28 10:39:19;;;;;;;;;12.75;12.00;;;;;5.25;59.29;102362.22;3724971;38;20905;-60
2021/02/28 10:41:46;;;;;;;;;11.50;8.25;;;;;5.30;58.53;102377.03;3725265;37;20928;-62
2021/02/28 10:44:12;;;;;;;;;14.50;13.50;;;;;5.18;57.96;102398.53;3725277;37;20895;-61
2021/02/28 10:46:39;;;;;;;;;18.50;16.75;;;;;5.24;58.24;102371.22;3726227;37;20895;-62
2021/02/28 10:49:05;;;;;;;;;8.75;8.00;;;;;5.11;58.54;102371.22;3726216;37;20935;-62
2021/02/28 10:51:31;;;;;;;;;18.50;16.00;;;;;5.08;59.22;102357.16;3725715;38;20852;-62
2021/02/28 10:53:58;;;;;;;;;13.75;12.75;;;;;5.15;57.78;102369.22;3725523;37;20898;-61
2021/02/28 10:56:25;;;;;;;;;9.00;8.50;;;;;5.23;56.68;102345.34;3726363;38;20900;-61
2021/02/28 10:58:51;;;;;;;;;11.00;11.00;;;;;5.31;58.33;102346.56;3725867;38;20901;-62
2021/02/28 11:01:18;;;;;;;;;17.50;15.00;;;;;5.35;58.29;102351.72;3727232;38;20890;-61
2021/02/28 11:03:44;;;;;;;;;15.00;14.50;;;;;5.47;57.60;102340.12;3725663;37;20929;-60
2021/02/28 11:06:17;;;;;;;;;7.25;6.50;;;;;5.27;56.70;102339.66;3725205;38;20914;-61
2021/02/28 11:08:43;;;;;;;;;14.00;11.75;;;;;5.20;57.70;102329.50;3725853;38;20863;-62
2021/02/28 11:11:10;;;;;;;;;9.50;7.00;;;;;5.22;57.74;102343.62;3726769;37;20869;-63
2021/02/28 11:13:36;;;;;;;;;14.75;13.25;;;;;5.35;56.81;102341.84;3725525;38;20858;-62
2021/02/28 11:16:02;;;;;;;;;14.75;12.50;;;;;5.21;57.27;102329.34;3725691;37;20870;-64
2021/02/28 11:18:29;;;;;;;;;13.00;13.00;;;;;5.17;57.85;102338.63;3725757;38;20916;-62
2021/02/28 11:20:55;;;;;;;;;9.25;9.25;;;;;5.23;57.55;102318.50;3725692;37;20891;-61
2021/02/28 11:23:21;;;;;;;;;12.75;12.00;;;;;5.27;56.56;102346.88;3725295;37;20855;-62
2021/02/28 11:25:48;;;;;;;;;13.25;11.50;;;;;5.31;56.49;102321.53;3725858;37;20846;-64
2021/02/28 11:28:14;;;;;;;;;12.50;11.25;;;;;5.54;55.99;102301.13;3725634;37;20884;-62
2021/02/28 11:30:41;;;;;;;;;13.75;13.50;;;;;5.74;55.40;102305.91;3725281;38;20867;-62
2021/02/28 11:33:07;;;;;;;;;14.00;12.00;;;;;5.59;54.93;102340.12;3725242;38;20866;-68
2021/02/28 11:35:33;;;;;;;;;11.00;9.00;;;;;5.37;56.23;102310.38;3725379;38;20846;-62
2021/02/28 11:37:59;;;;;;;;;8.00;7.25;;;;;5.43;55.00;102303.72;3725593;37;20843;-63